Flight Track Log - Related Links

Times and Time Zones

All times are in EDT time to prevent confusion due to time zone crossing. See the N872DC flight status page for this flight to view local times or setup timezone preferences in your user account.

Time Position Orientation Groundspeed Altitude Reporting Facility
EDT Latitude Longitude Course Direction KTS MPH feet Rate Location/Type
Fri 05:12:50 PM 29.0900 -95.4336 96° East 161 185 2,700  Level Houston Center
Fri 05:13:51 PM 29.1108 -95.3617 72° East 242 278 5,400 2,948 Climbing Houston Center
Fri 05:14:46 PM 29.1331 -95.2850 72° East 285 328 8,400 2,867 Climbing Houston Center
Fri 05:15:21 PM 29.1408 -95.2481 76° East 269 310 9,700 3,155 Climbing Houston Center
Fri 05:16:23 PM 29.1594 -95.1336 79° East 302 348 13,500 3,387 Climbing Houston Center
Fri 05:17:25 PM 29.1675 -95.0339 85° East 314 361 16,700 2,661 Climbing Houston Center
Fri 05:18:27 PM 29.1608 -94.9300 94° East 328 377 19,000 2,177 Climbing Houston Center
Fri 05:19:29 PM 29.1542 -94.8206 94° East 343 395 21,200 1,920 Climbing Houston Center
Fri 05:20:32 PM 29.1475 -94.7053 94° East 361 415 23,000 864 Climbing Houston Center
Fri 05:21:34 PM 29.1358 -94.5486 95° East 419 482 23,000  Level Houston Center
Fri 05:22:36 PM 29.1281 -94.4136 94° East 428 493 23,000  Level Houston Center
Fri 05:23:38 PM 29.1250 -94.2836 92° East 416 479 23,000  Level Houston Center
Fri 05:24:40 PM 29.1206 -94.1536 92° East 412 474 23,000  Level Houston Center
Fri 05:25:42 PM 29.1147 -94.0233 93° East 412 474 23,000  Level Houston Center
Fri 05:26:44 PM 29.1083 -93.8947 93° East 409 471 23,000  Level Houston Center
Fri 05:27:46 PM 29.1017 -93.7375 93° East 412 474 23,000  Level Houston Center
Fri 05:28:48 PM 29.0978 -93.6094 92° East 408 470 23,000  Level Houston Center
Fri 05:29:51 PM 29.0928 -93.4814 93° East 405 466 23,000  Level Houston Center
Fri 05:30:53 PM 29.0886 -93.3533 92° East 406 467 23,000  Level Houston Center
Fri 05:31:55 PM 29.1450 -93.2414 60° Northeast 419 482 23,000  Level Houston Center
Fri 05:32:57 PM 29.2267 -93.1194 52° Northeast 409 471 23,000  Level Houston Center
Fri 05:33:59 PM 29.2944 -93.0214 52° Northeast 400 460 23,000  Level Houston Center
Fri 05:35:01 PM 29.3619 -92.9214 52° Northeast 398 458 23,000  Level Houston Center
Fri 05:36:03 PM 29.4317 -92.8169 53° Northeast 407 468 23,000  Level Houston Center
Fri 05:37:05 PM 29.5036 -92.7108 52° Northeast 417 480 23,000  Level Houston Center
Fri 05:38:07 PM 29.5872 -92.5844 53° Northeast 417 480 23,000 -288 Level Houston Center
Fri 05:39:10 PM 29.6550 -92.4825 53° Northeast 407 468 22,400 -672 Descending Houston Center
Fri 05:40:12 PM 29.7236 -92.3814 52° Northeast 402 463 21,600 -774 Descending Houston Center
Fri 05:41:14 PM 29.7883 -92.2833 53° Northeast 391 450 20,800 -774 Descending Houston Center
Fri 05:42:16 PM 29.8525 -92.1850 53° Northeast 386 444 20,000 -774 Descending Houston Center
Fri 05:43:18 PM 29.9167 -92.0900 52° Northeast 379 436 19,200 -871 Descending Houston Center
Fri 05:44:20 PM 29.9894 -91.9800 53° Northeast 364 419 18,200 -823 Descending Houston Center
Fri 05:45:22 PM 30.0492 -91.8883 53° Northeast 360 414 17,500 -1,016 Descending Houston Center
Fri 05:46:24 PM 30.1069 -91.8006 53° Northeast 349 402 16,100 -1,742 Descending Houston Center
Fri 05:47:26 PM 30.1697 -91.7061 52° Northeast 352 405 13,900 -2,032 Descending Houston Center
Fri 05:48:28 PM 30.2297 -91.6139 53° Northeast 358 412 11,900 -1,984 Descending Houston Center
Fri 05:49:30 PM 30.2881 -91.5267 52° Northeast 347 399 9,800 -2,160 Descending Houston Center
Fri 05:50:33 PM 30.3411 -91.4353 56° Northeast 286 329 7,400 -2,064 Descending Houston Center
Fri 05:51:35 PM 30.3806 -91.3672 56° Northeast 261 300 5,500 -1,742 Descending Houston Center
Fri 05:52:37 PM 30.4169 -91.3042 56° Northeast 242 278 3,800 -1,597 Descending Houston Center
Fri 05:53:39 PM 30.4553 -91.2447 53° Northeast 236 272 2,200 -1,548 Descending Houston Center
Fri 05:55:00 PM 30.5167 -91.1333 65° Northeast  Level FlightAware Approximate
Fri 06:02:00 PM 30.5329 -91.1499 65° Northeast  Level Estimated
Fri 06:03:00 PM 30.5329 -91.1499 65° Northeast  Level Estimated
Fri 06:04:00 PM 30.5329 -91.1499 65° Northeast  Level Estimated

Login

Don't have an account? Register now (free) for customized features, flight alerts, and more!